Markleeville, CA (96120)

11:04 AM PDT on April 26, 2015 (GMT -0700)
Jobs Canyon | | Change Station
CLOSE
Current Station
Personal Weather Station
Location: Gardnerville, NV
Elevation: 5564 ft
Nearby Weather Stations

Elev 5564 ft 38.90 °N, 119.85 °W | Updated 13 minutes ago

Clear
Clear
58.8 °F
Feels Like 58.8 °F
N
4.2
Wind Variable Wind from SSE

Today
High -- | Low -- °F
--% Chance of Precip.
Yesterday
High -- | Low -- °F
Precip. -- in
6:08 AM 7:46 PM
First Quarter, 57% visible
Pressure 30.10 in
Visibility 10.0 miles
Clouds Clear
Dew Point 37 °F
Humidity 44%
Rainfall 0.00 in
Snow Depth Not available.
UV 9 out of 12
Pollen 8.30 out of 12
Air Quality Not available.
Flu Activity Sporadic
METAR KTVL 261753Z AUTO 06005KT 10SM CLR 08/M03 A3015 RMK AO2 SLP193 T00781028 10078 21017 53012

More Conditions Fewer Conditions

Pressure 30.10 in
Visibility 10.0 miles
Clouds Clear
Dew Point 37 °F
Humidity 44%
Rainfall 0.00 in
Snow Depth Not available.
UV 9 out of 12
Pollen 8.30 out of 12
Air Quality Not available.
Flu Activity Sporadic
METAR KTVL 261753Z AUTO 06005KT 10SM CLR 08/M03 A3015 RMK AO2 SLP193 T00781028 10078 21017 53012

More Conditions Fewer Conditions

The full scope of the disaster following a powerful 7.8-magnitude earthquake in Nepal may not come into view for days, but global charities are already sending emergency aid. Click to see how you can help.

10-Day Weather Forecast

Almanac

Astronomy

Apr. 26, 2015 Rise Set
Actual Time
Civil Twilight
Nautical Twilight
Astronomical Twilight
Moon
Length of Visible Light
Length of Day
Tomorrow will be .
, % of the Moon is Illuminated

Today's Extremes

State Highs State Lows

Community

WunderPhotos

Upload Photos

1,817,080 photos uploaded!

WunderBlogs® & News

Nearby

Air Quality

  Air Quality AQ Index Pollutant
Not available.

Snow Depth

Station Depth Elevation

Earthquake Activity

City Distance Mag. Time & Date
Minimum magnitude displayed is 2.5.

Coastal Water Temperatures

Place Temperature

Stations

Nearby Weather Stations

Station Location Temp. Windchill Dew Point Humidity Wind Precip. Elev Updated Type